createdAt,value
2019-03-08T00:02:31.383Z,65.11
2019-03-08T00:05:03.313Z,65.19
2019-03-08T00:07:35.742Z,65.20
2019-03-08T00:10:08.272Z,64.84
2019-03-08T00:12:40.582Z,64.92
2019-03-08T00:15:14.498Z,65.27
2019-03-08T00:17:46.871Z,64.60
2019-03-08T00:20:19.235Z,64.33
2019-03-08T00:22:51.615Z,64.54
2019-03-08T00:25:23.986Z,64.61
2019-03-08T00:27:56.355Z,64.31
2019-03-08T00:30:30.254Z,63.77
2019-03-08T00:33:02.640Z,63.57
2019-03-08T00:35:35.011Z,63.82
2019-03-08T00:38:07.384Z,63.31
2019-03-08T00:40:39.749Z,63.61
2019-03-08T00:43:12.123Z,64.02
2019-03-08T00:45:44.495Z,64.17
2019-03-08T00:48:16.866Z,64.18
2019-03-08T00:50:48.798Z,64.30
2019-03-08T00:53:21.557Z,64.62
2019-03-08T00:55:53.886Z,64.52
2019-03-08T00:58:26.255Z,64.79
2019-03-08T01:00:58.625Z,64.94
2019-03-08T01:03:30.998Z,65.23
2019-03-08T01:06:03.372Z,65.58
2019-03-08T01:08:35.730Z,65.68
2019-03-08T01:11:07.642Z,65.83
2019-03-08T01:13:41.290Z,65.88
2019-03-08T01:16:13.974Z,65.96
2019-03-08T01:18:46.346Z,66.26
2019-03-08T01:21:18.737Z,66.40
2019-03-08T01:23:52.420Z,66.68
2019-03-08T01:26:24.797Z,66.74
2019-03-08T01:28:57.175Z,66.79
2019-03-08T01:31:30.780Z,67.04
2019-03-08T01:34:03.141Z,67.38
2019-03-08T01:36:35.520Z,67.34
2019-03-08T01:39:09.734Z,67.05
2019-03-08T01:41:42.212Z,67.34
2019-03-08T01:44:14.582Z,66.57
2019-03-08T01:46:46.954Z,66.59
2019-03-08T01:49:19.845Z,66.85
2019-03-08T01:51:52.201Z,66.90
2019-03-08T01:54:24.575Z,66.66
2019-03-08T01:56:56.490Z,66.22
2019-03-08T01:59:28.919Z,66.08
2019-03-08T02:02:01.392Z,66.21
2019-03-08T02:04:33.751Z,65.86
2019-03-08T02:07:06.750Z,65.70
2019-03-08T02:09:39.128Z,65.44
2019-03-08T02:12:11.698Z,65.33
2019-03-08T02:14:44.117Z,65.41
2019-03-08T02:17:16.428Z,65.23
2019-03-08T02:19:48.801Z,64.91
2019-03-08T02:22:21.069Z,65.13
2019-03-08T02:24:53.442Z,64.92
2019-03-08T02:27:26.019Z,65.01
2019-03-08T02:29:58.395Z,64.95
2019-03-08T02:32:30.318Z,64.71
2019-03-08T02:35:03.245Z,64.93
2019-03-08T02:37:35.613Z,64.86
2019-03-08T02:40:31.229Z,64.85
2019-03-08T02:43:14.249Z,64.97
2019-03-08T02:45:46.735Z,64.95
2019-03-08T02:48:19.116Z,64.73
2019-03-08T02:50:51.474Z,64.89
2019-03-08T02:53:23.847Z,64.51
2019-03-08T02:55:56.224Z,64.39
2019-03-08T02:58:28.595Z,64.25
2019-03-08T03:01:01.273Z,64.13
2019-03-08T03:03:33.639Z,64.04
2019-03-08T03:06:05.903Z,64.00
2019-03-08T03:08:38.284Z,64.23
2019-03-08T03:11:10.656Z,64.46
2019-03-08T03:13:43.026Z,64.82
2019-03-08T03:16:16.628Z,64.96
2019-03-08T03:18:48.997Z,65.07
2019-03-08T03:21:21.417Z,65.01
2019-03-08T03:23:53.391Z,65.17
2019-03-08T03:26:26.214Z,65.24
2019-03-08T03:28:58.589Z,65.51
2019-03-08T03:31:30.853Z,65.26
2019-03-08T03:34:03.233Z,65.19
2019-03-08T03:36:37.129Z,65.33
2019-03-08T03:39:09.515Z,65.42
2019-03-08T03:41:41.884Z,65.52
2019-03-08T03:44:14.662Z,65.33
2019-03-08T03:46:47.001Z,65.28
2019-03-08T03:49:19.510Z,65.61
2019-03-08T03:51:51.883Z,65.38
2019-03-08T03:54:23.838Z,65.22
2019-03-08T03:56:56.105Z,65.41
2019-03-08T03:59:28.492Z,65.23
2019-03-08T04:02:00.852Z,65.30
2019-03-08T04:04:33.235Z,65.20
2019-03-08T04:07:05.602Z,65.16
2019-03-08T04:09:37.565Z,65.31
2019-03-08T04:12:10.449Z,65.16
2019-03-08T04:14:42.826Z,65.36
2019-03-08T04:17:15.191Z,65.19
2019-03-08T04:19:47.184Z,65.33
2019-03-08T04:22:19.528Z,65.81
2019-03-08T04:24:51.894Z,65.52
2019-03-08T04:27:24.282Z,65.41
2019-03-08T04:29:56.746Z,65.68
2019-03-08T04:32:29.315Z,65.64
2019-03-08T04:35:02.111Z,65.72
2019-03-08T04:37:34.468Z,65.69
2019-03-08T04:40:10.635Z,65.70
2019-03-08T04:42:42.561Z,65.47
2019-03-08T04:45:16.812Z,65.80
2019-03-08T04:47:49.185Z,65.55
2019-03-08T04:50:21.557Z,65.67
2019-03-08T04:52:54.950Z,65.64
2019-03-08T04:55:27.428Z,65.62
2019-03-08T04:57:59.795Z,65.29
2019-03-08T05:00:32.171Z,65.42
2019-03-08T05:03:04.097Z,65.48
2019-03-08T05:05:36.407Z,65.24
2019-03-08T05:08:08.976Z,65.33
2019-03-08T05:10:41.353Z,65.39
2019-03-08T05:13:13.716Z,65.60
2019-03-08T05:15:46.096Z,65.77
2019-03-08T05:18:18.461Z,65.94
2019-03-08T05:20:50.842Z,65.98
2019-03-08T05:23:23.216Z,65.91
2019-03-08T05:25:55.580Z,66.16
2019-03-08T05:28:27.844Z,66.22
2019-03-08T05:31:00.740Z,66.58
2019-03-08T05:33:33.003Z,66.69
2019-03-08T05:36:05.381Z,66.47
2019-03-08T05:38:37.303Z,66.43
2019-03-08T05:41:09.729Z,66.49
2019-03-08T05:43:42.119Z,66.52
2019-03-08T05:46:15.173Z,66.52
2019-03-08T05:48:47.647Z,66.14
2019-03-08T05:51:20.022Z,66.19
2019-03-08T05:53:52.318Z,65.80
2019-03-08T05:56:24.669Z,65.14
2019-03-08T05:58:57.024Z,65.16
2019-03-08T06:01:29.294Z,64.71
2019-03-08T06:04:01.680Z,64.63
2019-03-08T06:06:34.651Z,64.23
2019-03-08T06:09:08.339Z,63.86
2019-03-08T06:11:40.253Z,63.63
2019-03-08T06:14:12.690Z,63.28
2019-03-08T06:16:45.072Z,62.55
2019-03-08T06:19:17.446Z,62.38
2019-03-08T06:21:49.826Z,62.03
2019-03-08T06:24:22.287Z,61.01
2019-03-08T06:26:54.655Z,60.83
2019-03-08T06:29:27.438Z,60.29
2019-03-08T06:31:59.806Z,59.81
2019-03-08T06:34:32.904Z,59.08
2019-03-08T06:37:05.386Z,58.36
2019-03-08T06:39:37.754Z,58.46
2019-03-08T06:42:10.229Z,58.17
2019-03-08T06:44:42.179Z,57.88
2019-03-08T06:47:14.613Z,57.37
2019-03-08T06:49:46.924Z,57.01
2019-03-08T06:52:19.365Z,56.82
2019-03-08T06:54:51.782Z,56.42
2019-03-08T06:57:24.041Z,56.16
2019-03-08T06:59:57.562Z,55.97
2019-03-08T07:02:30.305Z,56.04
2019-03-08T07:05:02.893Z,55.72
2019-03-08T07:07:35.280Z,55.37
2019-03-08T07:10:10.208Z,55.08
2019-03-08T07:12:42.584Z,54.95
2019-03-08T07:15:14.958Z,54.76
2019-03-08T07:17:47.314Z,54.64
2019-03-08T07:20:22.154Z,54.48
2019-03-08T07:23:12.026Z,54.09
2019-03-08T07:26:01.838Z,53.89
2019-03-08T07:28:36.955Z,53.70
2019-03-08T07:31:26.325Z,53.33
2019-03-08T07:34:12.664Z,52.95
2019-03-08T07:36:46.625Z,52.94
2019-03-08T07:39:36.509Z,52.58
2019-03-08T07:42:17.682Z,52.11
2019-03-08T07:44:55.700Z,52.38
2019-03-08T07:47:45.682Z,51.79
2019-03-08T07:50:17.315Z,51.38
2019-03-08T07:53:07.430Z,50.46
2019-03-08T07:55:58.029Z,50.62
2019-03-08T07:58:48.306Z,50.95
2019-03-08T08:01:28.100Z,50.36
2019-03-08T08:04:00.122Z,49.76
2019-03-08T08:06:35.155Z,50.26
2019-03-08T08:09:17.570Z,49.98
2019-03-08T08:11:57.005Z,49.53
2019-03-08T08:14:39.656Z,49.26
2019-03-08T08:17:13.014Z,48.90
2019-03-08T08:19:59.198Z,49.18
2019-03-08T08:22:36.075Z,48.15
2019-03-08T08:25:18.226Z,49.23
2019-03-08T08:27:56.284Z,48.98
2019-03-08T08:30:33.067Z,48.74
2019-03-08T08:33:05.125Z,49.06
2019-03-08T08:35:39.870Z,49.19
2019-03-08T08:38:16.534Z,48.70
2019-03-08T08:40:50.507Z,48.86
2019-03-08T08:43:27.316Z,48.45
2019-03-08T08:46:19.553Z,49.41
2019-03-08T08:49:00.625Z,48.85
2019-03-08T08:51:50.711Z,48.96
2019-03-08T08:54:28.831Z,49.07
2019-03-08T08:57:05.880Z,49.17
2019-03-08T08:59:39.801Z,49.10
2019-03-08T09:02:16.358Z,48.99
2019-03-08T09:05:01.076Z,49.26
2019-03-08T09:07:46.702Z,48.95
2019-03-08T09:10:35.267Z,48.88
2019-03-08T09:13:11.832Z,48.87
2019-03-08T09:15:57.278Z,48.54
2019-03-08T09:18:47.603Z,48.37
2019-03-08T09:21:33.795Z,48.85
2019-03-08T09:24:16.610Z,48.65
2019-03-08T09:26:56.562Z,48.71
2019-03-08T09:29:30.069Z,48.59
2019-03-08T09:32:09.493Z,48.86
2019-03-08T09:34:41.517Z,48.29
2019-03-08T09:37:13.634Z,48.76
2019-03-08T09:39:45.688Z,48.29
2019-03-08T09:42:20.837Z,48.62
2019-03-08T09:44:58.634Z,48.19
2019-03-08T09:47:35.505Z,47.83
2019-03-08T09:50:27.446Z,47.80
2019-03-08T09:53:16.610Z,47.44
2019-03-08T09:55:56.557Z,47.16
2019-03-08T09:58:42.441Z,47.19
2019-03-08T10:01:16.868Z,46.85
2019-03-08T10:03:49.671Z,46.80
2019-03-08T10:06:32.863Z,46.48
2019-03-08T10:09:18.046Z,46.29
2019-03-08T10:11:51.944Z,45.59
2019-03-08T10:14:28.928Z,45.55
2019-03-08T10:17:08.649Z,45.65
2019-03-08T10:19:45.355Z,45.47
2019-03-08T10:22:35.222Z,45.55
2019-03-08T10:25:26.343Z,45.70
2019-03-08T10:27:57.972Z,46.10
2019-03-08T10:30:43.899Z,46.03
2019-03-08T10:33:32.853Z,46.07
2019-03-08T10:36:04.904Z,46.68
2019-03-08T10:38:38.819Z,46.95
2019-03-08T10:41:15.488Z,47.43
2019-03-08T10:43:52.373Z,47.63
2019-03-08T10:46:31.771Z,47.90
2019-03-08T10:49:11.859Z,48.32
2019-03-08T10:51:45.869Z,48.60
2019-03-08T10:54:31.662Z,48.57
2019-03-08T10:57:08.528Z,48.58
2019-03-08T10:59:42.492Z,47.83
2019-03-08T11:02:31.715Z,47.96
2019-03-08T11:05:05.587Z,47.95
2019-03-08T11:07:44.467Z,47.40
2019-03-08T11:10:30.221Z,48.12
2019-03-08T11:13:13.458Z,47.81
2019-03-08T11:15:59.553Z,47.76
2019-03-08T11:18:49.536Z,47.70
2019-03-08T11:21:38.496Z,47.93
2019-03-08T11:24:22.851Z,47.42
2019-03-08T11:27:12.415Z,47.62
2019-03-08T11:29:58.520Z,46.90
2019-03-08T11:32:33.247Z,46.98
2019-03-08T11:35:12.366Z,46.97
2019-03-08T11:37:46.282Z,47.18
2019-03-08T11:40:35.132Z,46.60
2019-03-08T11:43:17.656Z,46.73
2019-03-08T11:46:07.935Z,46.57
2019-03-08T11:48:44.819Z,45.98
2019-03-08T11:51:32.042Z,45.74
2019-03-08T11:54:15.369Z,45.77
2019-03-08T11:56:55.870Z,46.54
2019-03-08T11:59:22.985Z,45.72
2019-03-08T12:02:08.551Z,43.56
2019-03-08T12:04:42.468Z,44.34
2019-03-08T12:07:16.367Z,45.11
2019-03-08T12:10:06.775Z,45.30
2019-03-08T12:12:40.681Z,46.16
2019-03-08T12:15:16.422Z,45.95
2019-03-08T12:17:48.385Z,45.59
2019-03-08T12:20:28.539Z,45.92
2019-03-08T12:23:17.092Z,45.11
2019-03-08T12:25:53.864Z,45.90
2019-03-08T12:28:25.945Z,46.38
2019-03-08T12:31:04.039Z,46.69
2019-03-08T12:33:54.126Z,47.50
2019-03-08T12:36:36.844Z,48.34
2019-03-08T12:39:19.256Z,48.62
2019-03-08T12:41:53.153Z,48.69
2019-03-08T12:44:29.480Z,48.90
2019-03-08T12:47:15.226Z,49.14
2019-03-08T12:50:04.691Z,60.81
2019-03-08T12:52:55.004Z,67.56
2019-03-08T12:55:31.640Z,66.56
2019-03-08T12:58:19.073Z,65.99
2019-03-08T13:00:55.840Z,65.84
2019-03-08T13:03:45.827Z,64.22
2019-03-08T13:06:19.733Z,61.76
2019-03-08T13:09:02.224Z,62.53
2019-03-08T13:11:36.060Z,62.61
2019-03-08T13:14:08.451Z,62.53
2019-03-08T13:16:40.806Z,62.69
2019-03-08T13:19:13.163Z,61.63
2019-03-08T13:21:45.531Z,62.65
2019-03-08T13:24:17.918Z,62.12
2019-03-08T13:26:50.178Z,61.56
2019-03-08T13:29:22.565Z,61.94
2019-03-08T13:31:54.937Z,62.00
2019-03-08T13:34:27.293Z,61.58
2019-03-08T13:37:00.179Z,61.80
2019-03-08T13:39:32.571Z,61.35
2019-03-08T13:42:04.934Z,61.54
2019-03-08T13:44:37.402Z,62.15
2019-03-08T13:47:09.975Z,63.22
2019-03-08T13:49:42.361Z,64.84
2019-03-08T13:52:14.618Z,69.07
2019-03-08T13:54:47.205Z,73.28
2019-03-08T13:57:19.462Z,76.68
2019-03-08T13:59:51.833Z,77.73
2019-03-08T14:02:23.770Z,78.00
2019-03-08T14:04:55.756Z,78.20
2019-03-08T14:07:28.862Z,78.85
2019-03-08T14:10:01.256Z,77.97
2019-03-08T14:12:33.277Z,76.63
2019-03-08T14:15:08.834Z,76.89
2019-03-08T14:17:41.209Z,75.71
2019-03-08T14:20:26.488Z,74.86
2019-03-08T14:22:59.121Z,74.17
2019-03-08T14:25:31.536Z,72.80
2019-03-08T14:28:03.900Z,72.46
2019-03-08T14:30:47.025Z,72.10
2019-03-08T14:33:19.158Z,72.03
2019-03-08T14:35:51.562Z,71.20
2019-03-08T14:38:23.940Z,71.11
2019-03-08T14:41:04.601Z,71.49
2019-03-08T14:43:52.492Z,71.55
2019-03-08T14:46:27.168Z,72.33
2019-03-08T14:48:59.962Z,77.21
2019-03-08T14:51:32.329Z,78.99
2019-03-08T14:54:06.049Z,81.42
2019-03-08T14:56:38.706Z,81.41
2019-03-08T14:59:14.908Z,81.98
2019-03-08T15:01:45.088Z,81.86
2019-03-08T15:04:17.103Z,81.78
2019-03-08T15:06:49.421Z,80.67
2019-03-08T15:09:21.789Z,81.30
2019-03-08T15:11:55.957Z,80.96
2019-03-08T15:14:30.242Z,78.56
2019-03-08T15:17:08.950Z,79.97
2019-03-08T15:19:39.805Z,78.79
2019-03-08T15:22:10.096Z,78.91
2019-03-08T15:24:42.474Z,79.11
2019-03-08T15:27:14.942Z,77.95
2019-03-08T15:29:54.206Z,76.60
2019-03-08T15:32:20.814Z,76.64
2019-03-08T15:34:53.249Z,72.80
2019-03-08T15:37:25.667Z,73.86
2019-03-08T15:39:59.159Z,73.45
2019-03-08T15:42:31.542Z,72.23
2019-03-08T15:45:05.791Z,72.98
2019-03-08T15:47:38.323Z,72.22
2019-03-08T15:50:20.110Z,72.18
2019-03-08T15:52:52.489Z,72.36
2019-03-08T15:55:24.858Z,72.24
2019-03-08T15:57:57.241Z,72.05
2019-03-08T16:00:29.608Z,72.54
2019-03-08T16:03:02.083Z,71.49
2019-03-08T16:05:34.459Z,71.89
2019-03-08T16:08:06.820Z,71.56
2019-03-08T16:10:39.250Z,71.35
2019-03-08T16:13:11.662Z,69.42
2019-03-08T16:15:44.035Z,69.24
2019-03-08T16:18:17.927Z,68.55
2019-03-08T16:20:50.521Z,67.38
2019-03-08T16:23:22.902Z,67.69
2019-03-08T16:25:55.273Z,67.99
2019-03-08T16:28:27.650Z,68.61
2019-03-08T16:31:03.720Z,68.57
2019-03-08T16:33:40.330Z,68.23
2019-03-08T16:36:29.055Z,68.42
2019-03-08T16:39:12.705Z,67.85
2019-03-08T16:41:49.133Z,68.18
2019-03-08T16:44:40.854Z,67.03
2019-03-08T16:47:31.054Z,66.14
2019-03-08T16:50:15.094Z,65.35
2019-03-08T16:53:02.113Z,64.61
2019-03-08T16:55:35.370Z,64.77
2019-03-08T16:58:18.189Z,64.41
2019-03-08T17:01:07.177Z,64.49
2019-03-08T17:03:57.070Z,64.02
2019-03-08T17:06:46.840Z,65.00
2019-03-08T17:09:23.525Z,64.14
2019-03-08T17:11:57.444Z,63.68
2019-03-08T17:14:47.311Z,63.88
2019-03-08T17:17:32.167Z,64.14
2019-03-08T17:20:16.923Z,64.00
2019-03-08T17:23:06.980Z,64.12
2019-03-08T17:25:56.704Z,64.50
2019-03-08T17:28:33.379Z,64.67
2019-03-08T17:31:07.376Z,65.35
2019-03-08T17:33:51.643Z,65.75
2019-03-08T17:36:34.751Z,65.55
2019-03-08T17:39:20.650Z,65.77
2019-03-08T17:42:03.467Z,66.12
2019-03-08T17:44:35.943Z,66.56
2019-03-08T17:47:21.364Z,66.73
2019-03-08T17:50:01.461Z,66.89
2019-03-08T17:52:46.947Z,67.28
2019-03-08T17:55:20.956Z,67.31
2019-03-08T17:58:10.534Z,67.21
2019-03-08T18:00:59.495Z,67.25
2019-03-08T18:03:35.864Z,67.39
2019-03-08T18:06:12.360Z,67.52
2019-03-08T18:08:46.239Z,67.63
2019-03-08T18:11:18.513Z,67.90
2019-03-08T18:13:58.039Z,68.12
2019-03-08T18:16:48.128Z,68.53
2019-03-08T18:19:27.871Z,68.71
2019-03-08T18:21:59.943Z,68.99
2019-03-08T18:24:52.304Z,68.94
2019-03-08T18:27:29.682Z,69.17
2019-03-08T18:30:06.876Z,69.18
2019-03-08T18:32:40.058Z,69.03
2019-03-08T18:35:18.055Z,69.35
2019-03-08T18:37:49.820Z,68.94
2019-03-08T18:40:29.955Z,69.05
2019-03-08T18:43:03.917Z,69.03
2019-03-08T18:45:41.158Z,69.26
2019-03-08T18:48:31.546Z,69.16
2019-03-08T18:51:18.363Z,69.62
2019-03-08T18:54:10.090Z,69.52
2019-03-08T18:57:02.011Z,69.69
2019-03-08T18:59:34.085Z,70.08
2019-03-08T19:02:08.908Z,69.63
2019-03-08T19:04:42.790Z,70.00
2019-03-08T19:07:16.722Z,70.09
2019-03-08T19:10:07.118Z,69.73
2019-03-08T19:12:44.103Z,70.31
2019-03-08T19:15:27.938Z,70.38
2019-03-08T19:18:18.333Z,70.42
2019-03-08T19:21:06.892Z,70.73
2019-03-08T19:23:46.153Z,71.00
2019-03-08T19:26:25.871Z,71.16
2019-03-08T19:28:59.769Z,71.39
2019-03-08T19:31:36.658Z,71.72
2019-03-08T19:34:08.720Z,71.69
2019-03-08T19:36:43.760Z,70.97
2019-03-08T19:39:17.668Z,71.20
2019-03-08T19:41:52.584Z,71.30
2019-03-08T19:44:26.606Z,71.76
2019-03-08T19:47:09.409Z,72.28
2019-03-08T19:49:45.408Z,72.75
2019-03-08T19:52:20.508Z,73.18
2019-03-08T19:54:54.418Z,73.44
2019-03-08T19:57:37.181Z,73.85
2019-03-08T20:00:33.676Z,74.08
2019-03-08T20:03:07.675Z,73.92
2019-03-08T20:05:56.431Z,74.11
2019-03-08T20:08:39.058Z,74.33
2019-03-08T20:11:15.622Z,74.69
2019-03-08T20:14:04.474Z,75.02
2019-03-08T20:16:44.115Z,75.14
2019-03-08T20:19:18.148Z,75.31
2019-03-08T20:21:52.348Z,75.27
2019-03-08T20:24:33.746Z,75.21
2019-03-08T20:27:07.839Z,74.92
2019-03-08T20:29:41.846Z,74.96
2019-03-08T20:32:30.092Z,74.76
2019-03-08T20:35:02.163Z,74.82
2019-03-08T20:37:40.570Z,74.96
2019-03-08T20:40:15.603Z,74.71
2019-03-08T20:42:52.388Z,74.76
2019-03-08T20:45:26.700Z,74.92
2019-03-08T20:47:59.072Z,74.78
2019-03-08T20:50:31.156Z,74.83
2019-03-08T20:53:03.513Z,74.92
2019-03-08T20:55:35.504Z,75.09
2019-03-08T20:58:07.435Z,75.32
2019-03-08T21:00:39.418Z,75.32
2019-03-08T21:03:11.763Z,75.57
2019-03-08T21:05:44.133Z,75.91
2019-03-08T21:08:16.726Z,76.18
2019-03-08T21:10:49.093Z,76.59
2019-03-08T21:13:22.893Z,77.00
2019-03-08T21:15:56.707Z,77.17
2019-03-08T21:18:29.379Z,77.42
2019-03-08T21:21:02.056Z,77.86
2019-03-08T21:23:33.976Z,78.29
2019-03-08T21:26:06.393Z,78.56
2019-03-08T21:28:38.774Z,79.07
2019-03-08T21:31:11.132Z,79.49
2019-03-08T21:33:43.062Z,79.80
2019-03-08T21:36:15.468Z,79.68
2019-03-08T21:38:50.810Z,79.94
2019-03-08T21:41:23.176Z,80.12
2019-03-08T21:43:55.568Z,80.22
2019-03-08T21:46:27.926Z,80.20
2019-03-08T21:48:59.845Z,80.59
2019-03-08T21:51:33.125Z,80.73
2019-03-08T21:54:05.446Z,80.62
2019-03-08T21:56:37.818Z,80.60
2019-03-08T21:59:11.433Z,80.54
2019-03-08T22:01:43.802Z,80.46
2019-03-08T22:04:17.705Z,80.61
2019-03-08T22:06:50.141Z,80.59
2019-03-08T22:09:39.595Z,80.56
2019-03-08T22:12:12.021Z,80.64
2019-03-08T22:14:43.955Z,80.65
2019-03-08T22:17:16.376Z,80.38
2019-03-08T22:19:49.039Z,80.12
2019-03-08T22:22:21.421Z,79.89
2019-03-08T22:24:53.957Z,79.72
2019-03-08T22:27:27.902Z,79.43
2019-03-08T22:30:00.678Z,79.38
2019-03-08T22:32:34.168Z,79.21
2019-03-08T22:35:07.315Z,78.95
2019-03-08T22:37:39.730Z,78.96
2019-03-08T22:40:13.843Z,78.59
2019-03-08T22:42:46.549Z,78.20
2019-03-08T22:45:18.790Z,78.30
2019-03-08T22:47:51.173Z,78.30
2019-03-08T22:50:23.847Z,78.41
2019-03-08T22:52:56.226Z,78.54
2019-03-08T22:55:28.485Z,78.82
2019-03-08T22:58:00.860Z,79.20
2019-03-08T23:00:54.836Z,79.37
2019-03-08T23:03:29.656Z,79.48
2019-03-08T23:06:03.266Z,79.63
2019-03-08T23:08:36.055Z,79.81
2019-03-08T23:11:08.419Z,79.67
2019-03-08T23:13:40.793Z,79.64
2019-03-08T23:16:13.276Z,79.83
2019-03-08T23:18:45.846Z,80.05
2019-03-08T23:21:18.223Z,80.22
2019-03-08T23:23:50.707Z,80.37
2019-03-08T23:26:23.076Z,80.39
2019-03-08T23:29:10.280Z,80.39
2019-03-08T23:31:47.166Z,80.52
2019-03-08T23:34:19.543Z,80.71
2019-03-08T23:36:52.113Z,80.75
2019-03-08T23:39:24.474Z,80.91
2019-03-08T23:41:56.853Z,81.04
2019-03-08T23:44:29.231Z,80.96
2019-03-08T23:47:05.074Z,81.15
2019-03-08T23:49:38.980Z,81.26
2019-03-08T23:52:11.363Z,81.42
2019-03-08T23:54:43.727Z,81.62
2019-03-08T23:57:16.612Z,81.63
2019-03-08T23:59:48.991Z,81.46
